sensor_id;sensor_type;location;lat;lon;timestamp;temperature;humidity
47861;HTU21D;33620;52.340;5.984;2023-05-21T00:00:38;16.76;62.60
47861;HTU21D;33620;52.340;5.984;2023-05-21T00:03:04;16.76;62.63
47861;HTU21D;33620;52.340;5.984;2023-05-21T00:05:29;16.78;62.61
47861;HTU21D;33620;52.340;5.984;2023-05-21T00:07:55;16.71;62.70
47861;HTU21D;33620;52.340;5.984;2023-05-21T00:10:20;16.70;62.91
47861;HTU21D;33620;52.340;5.984;2023-05-21T00:12:45;16.66;62.85
47861;HTU21D;33620;52.340;5.984;2023-05-21T00:15:11;16.64;63.10
47861;HTU21D;33620;52.340;5.984;2023-05-21T00:17:36;16.64;63.31
47861;HTU21D;33620;52.340;5.984;2023-05-21T00:20:02;16.64;63.34
47861;HTU21D;33620;52.340;5.984;2023-05-21T00:22:30;16.55;63.56
47861;HTU21D;33620;52.340;5.984;2023-05-21T00:24:57;16.51;63.77
47861;HTU21D;33620;52.340;5.984;2023-05-21T00:27:22;16.51;63.92
47861;HTU21D;33620;52.340;5.984;2023-05-21T00:29:48;16.55;63.96
47861;HTU21D;33620;52.340;5.984;2023-05-21T00:32:13;16.56;63.92
47861;HTU21D;33620;52.340;5.984;2023-05-21T00:34:38;16.57;63.93
47861;HTU21D;33620;52.340;5.984;2023-05-21T00:37:03;16.58;63.92
47861;HTU21D;33620;52.340;5.984;2023-05-21T00:39:29;16.59;63.82
47861;HTU21D;33620;52.340;5.984;2023-05-21T00:41:54;16.60;63.79
47861;HTU21D;33620;52.340;5.984;2023-05-21T00:44:21;16.59;64.01
47861;HTU21D;33620;52.340;5.984;2023-05-21T00:46:46;16.59;64.05
47861;HTU21D;33620;52.340;5.984;2023-05-21T00:49:12;16.58;63.98
47861;HTU21D;33620;52.340;5.984;2023-05-21T00:51:39;16.57;63.96
47861;HTU21D;33620;52.340;5.984;2023-05-21T00:54:04;16.52;64.21
47861;HTU21D;33620;52.340;5.984;2023-05-21T00:56:29;16.51;64.29
47861;HTU21D;33620;52.340;5.984;2023-05-21T00:58:55;16.52;64.41
47861;HTU21D;33620;52.340;5.984;2023-05-21T01:01:24;16.50;64.50
47861;HTU21D;33620;52.340;5.984;2023-05-21T01:03:57;16.48;64.71
47861;HTU21D;33620;52.340;5.984;2023-05-21T01:06:26;16.51;64.59
47861;HTU21D;33620;52.340;5.984;2023-05-21T01:08:51;16.49;64.68
47861;HTU21D;33620;52.340;5.984;2023-05-21T01:11:16;16.51;64.82
47861;HTU21D;33620;52.340;5.984;2023-05-21T01:13:42;16.49;64.77
47861;HTU21D;33620;52.340;5.984;2023-05-21T01:16:08;16.46;64.92
47861;HTU21D;33620;52.340;5.984;2023-05-21T01:18:35;16.46;65.00
47861;HTU21D;33620;52.340;5.984;2023-05-21T01:21:01;16.45;65.16
47861;HTU21D;33620;52.340;5.984;2023-05-21T01:23:27;16.43;65.28
47861;HTU21D;33620;52.340;5.984;2023-05-21T01:25:53;16.42;65.46
47861;HTU21D;33620;52.340;5.984;2023-05-21T01:28:18;16.42;65.57
47861;HTU21D;33620;52.340;5.984;2023-05-21T01:30:43;16.42;65.53
47861;HTU21D;33620;52.340;5.984;2023-05-21T01:33:20;16.40;65.63
47861;HTU21D;33620;52.340;5.984;2023-05-21T01:35:51;16.33;65.99
47861;HTU21D;33620;52.340;5.984;2023-05-21T01:40:57;16.32;66.14
47861;HTU21D;33620;52.340;5.984;2023-05-21T01:43:24;16.30;66.30
47861;HTU21D;33620;52.340;5.984;2023-05-21T01:45:53;16.30;66.39
47861;HTU21D;33620;52.340;5.984;2023-05-21T01:48:18;16.31;66.43
47861;HTU21D;33620;52.340;5.984;2023-05-21T01:50:44;16.29;66.49
47861;HTU21D;33620;52.340;5.984;2023-05-21T01:53:10;16.27;66.68
47861;HTU21D;33620;52.340;5.984;2023-05-21T01:55:35;16.28;66.91
47861;HTU21D;33620;52.340;5.984;2023-05-21T01:58:03;16.28;67.00
47861;HTU21D;33620;52.340;5.984;2023-05-21T02:00:28;16.27;67.06
47861;HTU21D;33620;52.340;5.984;2023-05-21T02:02:56;16.28;66.98
47861;HTU21D;33620;52.340;5.984;2023-05-21T02:05:22;16.27;67.14
47861;HTU21D;33620;52.340;5.984;2023-05-21T02:07:48;16.25;67.25
47861;HTU21D;33620;52.340;5.984;2023-05-21T02:10:15;16.22;67.54
47861;HTU21D;33620;52.340;5.984;2023-05-21T02:12:40;16.22;67.53
47861;HTU21D;33620;52.340;5.984;2023-05-21T02:15:05;16.19;67.63
47861;HTU21D;33620;52.340;5.984;2023-05-21T02:17:31;16.16;67.78
47861;HTU21D;33620;52.340;5.984;2023-05-21T02:20:00;16.14;67.88
47861;HTU21D;33620;52.340;5.984;2023-05-21T02:22:36;16.07;68.35
47861;HTU21D;33620;52.340;5.984;2023-05-21T02:25:02;16.06;68.52
47861;HTU21D;33620;52.340;5.984;2023-05-21T02:27:27;16.06;68.54
47861;HTU21D;33620;52.340;5.984;2023-05-21T02:29:55;16.12;68.46
47861;HTU21D;33620;52.340;5.984;2023-05-21T02:32:21;16.13;68.42
47861;HTU21D;33620;52.340;5.984;2023-05-21T02:34:47;16.12;68.63
47861;HTU21D;33620;52.340;5.984;2023-05-21T02:37:13;16.14;68.58
47861;HTU21D;33620;52.340;5.984;2023-05-21T02:39:38;16.13;68.62
47861;HTU21D;33620;52.340;5.984;2023-05-21T02:42:03;16.15;68.65
47861;HTU21D;33620;52.340;5.984;2023-05-21T02:44:28;16.13;68.63
47861;HTU21D;33620;52.340;5.984;2023-05-21T02:46:54;16.12;68.91
47861;HTU21D;33620;52.340;5.984;2023-05-21T02:49:19;16.14;68.95
47861;HTU21D;33620;52.340;5.984;2023-05-21T02:51:44;16.10;69.03
47861;HTU21D;33620;52.340;5.984;2023-05-21T02:54:09;16.10;69.12
47861;HTU21D;33620;52.340;5.984;2023-05-21T02:56:35;16.06;69.50
47861;HTU21D;33620;52.340;5.984;2023-05-21T02:59:00;16.01;69.53
47861;HTU21D;33620;52.340;5.984;2023-05-21T03:01:25;16.00;69.60
47861;HTU21D;33620;52.340;5.984;2023-05-21T03:03:51;16.02;69.71
47861;HTU21D;33620;52.340;5.984;2023-05-21T03:06:16;16.03;69.74
47861;HTU21D;33620;52.340;5.984;2023-05-21T03:08:41;16.03;69.71
47861;HTU21D;33620;52.340;5.984;2023-05-21T03:11:07;16.03;69.78
47861;HTU21D;33620;52.340;5.984;2023-05-21T03:13:32;16.05;69.68
47861;HTU21D;33620;52.340;5.984;2023-05-21T03:15:57;16.00;69.80
47861;HTU21D;33620;52.340;5.984;2023-05-21T03:18:22;16.01;69.93
47861;HTU21D;33620;52.340;5.984;2023-05-21T03:20:48;16.00;70.02
47861;HTU21D;33620;52.340;5.984;2023-05-21T03:23:13;16.02;70.07
47861;HTU21D;33620;52.340;5.984;2023-05-21T03:25:40;16.03;70.13
47861;HTU21D;33620;52.340;5.984;2023-05-21T03:28:05;16.04;70.07
47861;HTU21D;33620;52.340;5.984;2023-05-21T03:30:31;16.01;70.12
47861;HTU21D;33620;52.340;5.984;2023-05-21T03:32:56;16.00;70.19
47861;HTU21D;33620;52.340;5.984;2023-05-21T03:35:21;15.99;70.08
47861;HTU21D;33620;52.340;5.984;2023-05-21T03:37:47;16.00;70.17
47861;HTU21D;33620;52.340;5.984;2023-05-21T03:40:12;15.98;70.21
47861;HTU21D;33620;52.340;5.984;2023-05-21T03:42:37;15.98;70.45
47861;HTU21D;33620;52.340;5.984;2023-05-21T03:45:03;15.99;70.27
47861;HTU21D;33620;52.340;5.984;2023-05-21T03:47:28;15.98;70.48
47861;HTU21D;33620;52.340;5.984;2023-05-21T03:49:53;15.98;70.52
47861;HTU21D;33620;52.340;5.984;2023-05-21T03:52:19;15.95;70.60
47861;HTU21D;33620;52.340;5.984;2023-05-21T03:54:44;15.93;70.72
47861;HTU21D;33620;52.340;5.984;2023-05-21T03:57:09;15.97;70.68
47861;HTU21D;33620;52.340;5.984;2023-05-21T03:59:35;15.98;70.72
47861;HTU21D;33620;52.340;5.984;2023-05-21T04:02:00;15.97;70.66
47861;HTU21D;33620;52.340;5.984;2023-05-21T04:04:25;15.97;70.69
47861;HTU21D;33620;52.340;5.984;2023-05-21T04:06:54;15.99;70.58
47861;HTU21D;33620;52.340;5.984;2023-05-21T04:09:19;15.96;70.66
47861;HTU21D;33620;52.340;5.984;2023-05-21T04:11:45;15.98;70.68
47861;HTU21D;33620;52.340;5.984;2023-05-21T04:14:10;15.97;70.90
47861;HTU21D;33620;52.340;5.984;2023-05-21T04:16:36;15.96;71.26
47861;HTU21D;33620;52.340;5.984;2023-05-21T04:19:02;15.97;71.19
47861;HTU21D;33620;52.340;5.984;2023-05-21T04:21:28;15.96;71.07
47861;HTU21D;33620;52.340;5.984;2023-05-21T04:23:53;15.93;71.11
47861;HTU21D;33620;52.340;5.984;2023-05-21T04:26:21;15.93;71.37
47861;HTU21D;33620;52.340;5.984;2023-05-21T04:28:47;15.95;71.19
47861;HTU21D;33620;52.340;5.984;2023-05-21T04:31:13;15.93;71.09
47861;HTU21D;33620;52.340;5.984;2023-05-21T04:33:38;15.89;71.31
47861;HTU21D;33620;52.340;5.984;2023-05-21T04:36:06;15.90;71.55
47861;HTU21D;33620;52.340;5.984;2023-05-21T04:38:34;15.89;71.51
47861;HTU21D;33620;52.340;5.984;2023-05-21T04:41:01;15.88;71.50
47861;HTU21D;33620;52.340;5.984;2023-05-21T04:43:28;15.83;71.69
47861;HTU21D;33620;52.340;5.984;2023-05-21T04:45:54;15.81;71.95
47861;HTU21D;33620;52.340;5.984;2023-05-21T04:48:22;15.80;72.00
47861;HTU21D;33620;52.340;5.984;2023-05-21T04:50:49;15.82;71.86
47861;HTU21D;33620;52.340;5.984;2023-05-21T04:53:15;15.80;72.03
47861;HTU21D;33620;52.340;5.984;2023-05-21T04:55:40;15.81;72.04
47861;HTU21D;33620;52.340;5.984;2023-05-21T04:58:05;15.81;72.22
47861;HTU21D;33620;52.340;5.984;2023-05-21T05:00:31;15.81;72.31
47861;HTU21D;33620;52.340;5.984;2023-05-21T05:02:57;15.80;72.27
47861;HTU21D;33620;52.340;5.984;2023-05-21T05:05:22;15.81;72.33
47861;HTU21D;33620;52.340;5.984;2023-05-21T05:07:48;15.78;72.42
47861;HTU21D;33620;52.340;5.984;2023-05-21T05:10:13;15.78;72.55
47861;HTU21D;33620;52.340;5.984;2023-05-21T05:12:38;15.80;72.44
47861;HTU21D;33620;52.340;5.984;2023-05-21T05:15:04;15.80;72.64
47861;HTU21D;33620;52.340;5.984;2023-05-21T05:17:30;15.84;72.62
47861;HTU21D;33620;52.340;5.984;2023-05-21T05:19:55;15.83;72.70
47861;HTU21D;33620;52.340;5.984;2023-05-21T05:22:21;15.84;72.70
47861;HTU21D;33620;52.340;5.984;2023-05-21T05:24:46;15.84;72.57
47861;HTU21D;33620;52.340;5.984;2023-05-21T05:27:11;15.83;72.77
47861;HTU21D;33620;52.340;5.984;2023-05-21T05:29:37;15.84;72.82
47861;HTU21D;33620;52.340;5.984;2023-05-21T05:32:02;15.87;72.69
47861;HTU21D;33620;52.340;5.984;2023-05-21T05:34:27;15.89;72.66
47861;HTU21D;33620;52.340;5.984;2023-05-21T05:36:53;15.91;72.77
47861;HTU21D;33620;52.340;5.984;2023-05-21T05:39:18;15.92;72.61
47861;HTU21D;33620;52.340;5.984;2023-05-21T05:41:43;15.96;72.49
47861;HTU21D;33620;52.340;5.984;2023-05-21T05:44:08;15.95;72.59
47861;HTU21D;33620;52.340;5.984;2023-05-21T05:46:34;15.96;72.96
47861;HTU21D;33620;52.340;5.984;2023-05-21T05:48:59;15.98;72.88
47861;HTU21D;33620;52.340;5.984;2023-05-21T05:51:24;15.99;72.79
47861;HTU21D;33620;52.340;5.984;2023-05-21T05:53:50;16.00;72.68
47861;HTU21D;33620;52.340;5.984;2023-05-21T05:56:15;16.03;72.51
47861;HTU21D;33620;52.340;5.984;2023-05-21T05:58:41;16.03;72.69
47861;HTU21D;33620;52.340;5.984;2023-05-21T06:01:06;16.05;73.01
47861;HTU21D;33620;52.340;5.984;2023-05-21T06:03:31;16.03;72.80
47861;HTU21D;33620;52.340;5.984;2023-05-21T06:05:57;16.07;72.64
47861;HTU21D;33620;52.340;5.984;2023-05-21T06:08:22;16.08;72.67
47861;HTU21D;33620;52.340;5.984;2023-05-21T06:10:48;16.05;72.48
47861;HTU21D;33620;52.340;5.984;2023-05-21T06:13:14;16.03;72.43
47861;HTU21D;33620;52.340;5.984;2023-05-21T06:15:39;16.05;72.23
47861;HTU21D;33620;52.340;5.984;2023-05-21T06:18:07;16.10;72.26
47861;HTU21D;33620;52.340;5.984;2023-05-21T06:20:32;16.14;72.19
47861;HTU21D;33620;52.340;5.984;2023-05-21T06:22:57;16.13;72.32
47861;HTU21D;33620;52.340;5.984;2023-05-21T06:25:23;16.12;71.99
47861;HTU21D;33620;52.340;5.984;2023-05-21T06:27:49;16.12;72.03
47861;HTU21D;33620;52.340;5.984;2023-05-21T06:30:15;16.10;72.07
47861;HTU21D;33620;52.340;5.984;2023-05-21T06:32:41;16.08;72.33
47861;HTU21D;33620;52.340;5.984;2023-05-21T06:35:06;16.08;72.20
47861;HTU21D;33620;52.340;5.984;2023-05-21T06:37:32;16.08;72.09
47861;HTU21D;33620;52.340;5.984;2023-05-21T06:39:57;16.14;72.01
47861;HTU21D;33620;52.340;5.984;2023-05-21T06:42:22;16.17;72.09
47861;HTU21D;33620;52.340;5.984;2023-05-21T06:44:48;16.20;72.05
47861;HTU21D;33620;52.340;5.984;2023-05-21T06:47:13;16.25;72.00
47861;HTU21D;33620;52.340;5.984;2023-05-21T06:49:38;16.28;71.80
47861;HTU21D;33620;52.340;5.984;2023-05-21T06:52:04;16.20;71.53
47861;HTU21D;33620;52.340;5.984;2023-05-21T06:54:29;16.18;71.93
47861;HTU21D;33620;52.340;5.984;2023-05-21T06:56:54;16.25;71.94
47861;HTU21D;33620;52.340;5.984;2023-05-21T06:59:20;16.30;71.88
47861;HTU21D;33620;52.340;5.984;2023-05-21T07:01:45;16.27;71.80
47861;HTU21D;33620;52.340;5.984;2023-05-21T07:04:10;16.22;71.66
47861;HTU21D;33620;52.340;5.984;2023-05-21T07:06:36;16.25;71.91
47861;HTU21D;33620;52.340;5.984;2023-05-21T07:09:02;16.26;72.06
47861;HTU21D;33620;52.340;5.984;2023-05-21T07:11:27;16.30;71.90
47861;HTU21D;33620;52.340;5.984;2023-05-21T07:13:53;16.34;72.15
47861;HTU21D;33620;52.340;5.984;2023-05-21T07:16:19;16.36;71.69
47861;HTU21D;33620;52.340;5.984;2023-05-21T07:18:45;16.39;71.42
47861;HTU21D;33620;52.340;5.984;2023-05-21T07:21:10;16.41;71.55
47861;HTU21D;33620;52.340;5.984;2023-05-21T07:23:36;16.43;71.62
47861;HTU21D;33620;52.340;5.984;2023-05-21T07:26:01;16.39;71.52
47861;HTU21D;33620;52.340;5.984;2023-05-21T07:28:26;16.43;71.88
47861;HTU21D;33620;52.340;5.984;2023-05-21T07:30:52;16.44;71.49
47861;HTU21D;33620;52.340;5.984;2023-05-21T07:33:17;16.46;71.40
47861;HTU21D;33620;52.340;5.984;2023-05-21T07:35:44;16.45;71.19
47861;HTU21D;33620;52.340;5.984;2023-05-21T07:38:10;16.46;71.40
47861;HTU21D;33620;52.340;5.984;2023-05-21T07:40:35;16.46;71.42
47861;HTU21D;33620;52.340;5.984;2023-05-21T07:43:00;16.55;71.84
47861;HTU21D;33620;52.340;5.984;2023-05-21T07:45:26;16.60;71.32
47861;HTU21D;33620;52.340;5.984;2023-05-21T07:47:51;16.66;71.22
47861;HTU21D;33620;52.340;5.984;2023-05-21T07:50:16;16.72;71.06
47861;HTU21D;33620;52.340;5.984;2023-05-21T07:52:41;16.78;71.12
47861;HTU21D;33620;52.340;5.984;2023-05-21T07:55:07;16.82;70.81
47861;HTU21D;33620;52.340;5.984;2023-05-21T07:57:33;16.84;70.21
47861;HTU21D;33620;52.340;5.984;2023-05-21T07:59:59;16.78;70.51
47861;HTU21D;33620;52.340;5.984;2023-05-21T08:02:24;16.86;70.85
47861;HTU21D;33620;52.340;5.984;2023-05-21T08:04:50;16.93;71.26
47861;HTU21D;33620;52.340;5.984;2023-05-21T08:07:16;16.98;70.93
47861;HTU21D;33620;52.340;5.984;2023-05-21T08:09:44;17.05;70.59
47861;HTU21D;33620;52.340;5.984;2023-05-21T08:12:09;17.07;70.69
47861;HTU21D;33620;52.340;5.984;2023-05-21T08:14:35;17.10;70.46
47861;HTU21D;33620;52.340;5.984;2023-05-21T08:17:00;17.16;70.55
47861;HTU21D;33620;52.340;5.984;2023-05-21T08:19:27;17.25;70.87
47861;HTU21D;33620;52.340;5.984;2023-05-21T08:21:52;17.32;70.59
47861;HTU21D;33620;52.340;5.984;2023-05-21T08:24:18;17.38;69.94
47861;HTU21D;33620;52.340;5.984;2023-05-21T08:26:43;17.44;69.76
47861;HTU21D;33620;52.340;5.984;2023-05-21T08:29:09;17.51;69.93
47861;HTU21D;33620;52.340;5.984;2023-05-21T08:31:34;17.60;70.07
47861;HTU21D;33620;52.340;5.984;2023-05-21T08:33:59;17.67;69.52
47861;HTU21D;33620;52.340;5.984;2023-05-21T08:36:25;17.75;69.47
47861;HTU21D;33620;52.340;5.984;2023-05-21T08:38:50;17.80;69.36
47861;HTU21D;33620;52.340;5.984;2023-05-21T08:41:15;17.87;68.70
47861;HTU21D;33620;52.340;5.984;2023-05-21T08:43:42;17.95;68.47
47861;HTU21D;33620;52.340;5.984;2023-05-21T08:46:07;18.04;68.23
47861;HTU21D;33620;52.340;5.984;2023-05-21T08:48:34;18.15;68.24
47861;HTU21D;33620;52.340;5.984;2023-05-21T08:51:00;18.28;68.22
47861;HTU21D;33620;52.340;5.984;2023-05-21T08:53:26;18.35;67.51
47861;HTU21D;33620;52.340;5.984;2023-05-21T08:55:52;18.41;67.59
47861;HTU21D;33620;52.340;5.984;2023-05-21T08:58:18;18.55;67.28
47861;HTU21D;33620;52.340;5.984;2023-05-21T09:00:43;18.70;67.02
47861;HTU21D;33620;52.340;5.984;2023-05-21T09:03:09;18.82;66.43
47861;HTU21D;33620;52.340;5.984;2023-05-21T09:05:42;18.87;66.52
47861;HTU21D;33620;52.340;5.984;2023-05-21T09:08:12;18.97;66.27
47861;HTU21D;33620;52.340;5.984;2023-05-21T09:10:38;19.00;64.73
47861;HTU21D;33620;52.340;5.984;2023-05-21T09:13:04;19.09;65.48
47861;HTU21D;33620;52.340;5.984;2023-05-21T09:15:31;19.20;65.76
47861;HTU21D;33620;52.340;5.984;2023-05-21T09:17:57;19.33;65.60
47861;HTU21D;33620;52.340;5.984;2023-05-21T09:20:25;19.40;64.46
47861;HTU21D;33620;52.340;5.984;2023-05-21T09:22:51;19.52;64.56
47861;HTU21D;33620;52.340;5.984;2023-05-21T09:26:45;19.70;63.92
47861;HTU21D;33620;52.340;5.984;2023-05-21T09:29:11;19.68;63.83
47861;HTU21D;33620;52.340;5.984;2023-05-21T09:31:44;19.70;63.28
47861;HTU21D;33620;52.340;5.984;2023-05-21T09:34:10;19.56;62.86
47861;HTU21D;33620;52.340;5.984;2023-05-21T09:36:36;19.52;63.84
47861;HTU21D;33620;52.340;5.984;2023-05-21T09:39:02;19.58;63.63
47861;HTU21D;33620;52.340;5.984;2023-05-21T09:41:32;19.62;63.82
47861;HTU21D;33620;52.340;5.984;2023-05-21T09:44:02;19.77;64.27
47861;HTU21D;33620;52.340;5.984;2023-05-21T09:46:36;19.88;63.87
47861;HTU21D;33620;52.340;5.984;2023-05-21T09:49:02;19.94;63.53
47861;HTU21D;33620;52.340;5.984;2023-05-21T09:51:27;19.98;62.63
47861;HTU21D;33620;52.340;5.984;2023-05-21T09:53:55;19.99;62.77
47861;HTU21D;33620;52.340;5.984;2023-05-21T09:56:26;19.97;62.54
47861;HTU21D;33620;52.340;5.984;2023-05-21T09:58:53;19.92;62.83
47861;HTU21D;33620;52.340;5.984;2023-05-21T10:01:21;19.94;62.56
47861;HTU21D;33620;52.340;5.984;2023-05-21T10:03:53;19.94;62.79
47861;HTU21D;33620;52.340;5.984;2023-05-21T10:06:22;19.99;62.63
47861;HTU21D;33620;52.340;5.984;2023-05-21T10:08:51;20.10;63.06
47861;HTU21D;33620;52.340;5.984;2023-05-21T10:11:18;20.12;62.26
47861;HTU21D;33620;52.340;5.984;2023-05-21T10:13:44;20.12;61.76
47861;HTU21D;33620;52.340;5.984;2023-05-21T10:16:14;20.15;62.57
47861;HTU21D;33620;52.340;5.984;2023-05-21T10:18:41;20.19;62.26
47861;HTU21D;33620;52.340;5.984;2023-05-21T10:21:06;20.22;61.63
47861;HTU21D;33620;52.340;5.984;2023-05-21T10:23:35;20.15;61.86
47861;HTU21D;33620;52.340;5.984;2023-05-21T10:26:00;20.22;62.26
47861;HTU21D;33620;52.340;5.984;2023-05-21T10:28:27;20.21;61.79
47861;HTU21D;33620;52.340;5.984;2023-05-21T10:30:53;20.20;62.08
47861;HTU21D;33620;52.340;5.984;2023-05-21T10:33:19;20.26;61.70
47861;HTU21D;33620;52.340;5.984;2023-05-21T10:35:48;20.36;62.28
47861;HTU21D;33620;52.340;5.984;2023-05-21T10:38:17;20.35;61.29
47861;HTU21D;33620;52.340;5.984;2023-05-21T10:40:43;20.42;61.80
47861;HTU21D;33620;52.340;5.984;2023-05-21T10:43:33;20.45;62.15
47861;HTU21D;33620;52.340;5.984;2023-05-21T11:00:25;20.88;61.20
47861;HTU21D;33620;52.340;5.984;2023-05-21T11:02:51;21.01;60.40
47861;HTU21D;33620;52.340;5.984;2023-05-21T11:05:39;21.13;60.44
47861;HTU21D;33620;52.340;5.984;2023-05-21T11:08:20;21.17;59.26
47861;HTU21D;33620;52.340;5.984;2023-05-21T11:10:53;21.27;59.65
47861;HTU21D;33620;52.340;5.984;2023-05-21T11:13:19;21.35;59.60
47861;HTU21D;33620;52.340;5.984;2023-05-21T11:21:16;21.37;59.12
47861;HTU21D;33620;52.340;5.984;2023-05-21T11:24:00;21.46;59.70
47861;HTU21D;33620;52.340;5.984;2023-05-21T11:27:13;21.54;58.73
47861;HTU21D;33620;52.340;5.984;2023-05-21T11:29:17;21.58;59.08
47861;HTU21D;33620;52.340;5.984;2023-05-21T11:31:47;21.55;58.46
47861;HTU21D;33620;52.340;5.984;2023-05-21T11:34:23;21.51;59.12
47861;HTU21D;33620;52.340;5.984;2023-05-21T11:39:52;21.42;58.77
47861;HTU21D;33620;52.340;5.984;2023-05-21T11:44:55;21.72;58.97
47861;HTU21D;33620;52.340;5.984;2023-05-21T11:47:23;21.83;58.54
47861;HTU21D;33620;52.340;5.984;2023-05-21T11:49:50;21.93;58.93
47861;HTU21D;33620;52.340;5.984;2023-05-21T11:52:15;21.98;58.19
47861;HTU21D;33620;52.340;5.984;2023-05-21T11:54:45;22.10;58.27
47861;HTU21D;33620;52.340;5.984;2023-05-21T11:57:12;22.13;58.02
47861;HTU21D;33620;52.340;5.984;2023-05-21T11:59:43;22.18;57.33
47861;HTU21D;33620;52.340;5.984;2023-05-21T12:02:08;22.25;57.35
47861;HTU21D;33620;52.340;5.984;2023-05-21T12:04:38;22.29;56.80
47861;HTU21D;33620;52.340;5.984;2023-05-21T12:07:04;22.29;56.52
47861;HTU21D;33620;52.340;5.984;2023-05-21T12:12:07;22.54;57.38
47861;HTU21D;33620;52.340;5.984;2023-05-21T12:14:33;22.63;56.93
47861;HTU21D;33620;52.340;5.984;2023-05-21T12:16:59;22.61;56.02
47861;HTU21D;33620;52.340;5.984;2023-05-21T12:19:24;22.51;55.81
47861;HTU21D;33620;52.340;5.984;2023-05-21T12:21:50;22.60;57.32
47861;HTU21D;33620;52.340;5.984;2023-05-21T12:24:15;22.72;56.43
47861;HTU21D;33620;52.340;5.984;2023-05-21T12:26:42;22.78;56.21
47861;HTU21D;33620;52.340;5.984;2023-05-21T12:29:08;22.84;56.02
47861;HTU21D;33620;52.340;5.984;2023-05-21T12:31:46;22.91;56.37
47861;HTU21D;33620;52.340;5.984;2023-05-21T12:34:12;22.93;55.71
47861;HTU21D;33620;52.340;5.984;2023-05-21T12:36:37;22.95;56.62
47861;HTU21D;33620;52.340;5.984;2023-05-21T12:39:03;23.02;56.29
47861;HTU21D;33620;52.340;5.984;2023-05-21T12:41:28;22.97;55.54
47861;HTU21D;33620;52.340;5.984;2023-05-21T12:43:54;22.99;55.41
47861;HTU21D;33620;52.340;5.984;2023-05-21T12:46:19;23.03;55.88
47861;HTU21D;33620;52.340;5.984;2023-05-21T12:48:49;23.03;55.30
47861;HTU21D;33620;52.340;5.984;2023-05-21T12:51:15;22.98;56.42
47861;HTU21D;33620;52.340;5.984;2023-05-21T12:53:42;23.13;55.90
47861;HTU21D;33620;52.340;5.984;2023-05-21T12:56:11;23.11;55.48
47861;HTU21D;33620;52.340;5.984;2023-05-21T12:58:38;23.13;55.61
47861;HTU21D;33620;52.340;5.984;2023-05-21T13:01:10;23.15;55.83
47861;HTU21D;33620;52.340;5.984;2023-05-21T13:03:40;23.22;55.31
47861;HTU21D;33620;52.340;5.984;2023-05-21T13:06:07;23.25;55.87
47861;HTU21D;33620;52.340;5.984;2023-05-21T13:08:33;23.24;55.48
47861;HTU21D;33620;52.340;5.984;2023-05-21T13:11:02;23.26;55.40
47861;HTU21D;33620;52.340;5.984;2023-05-21T13:13:28;23.29;56.14
47861;HTU21D;33620;52.340;5.984;2023-05-21T13:15:53;23.43;55.97
47861;HTU21D;33620;52.340;5.984;2023-05-21T13:18:20;23.45;54.96
47861;HTU21D;33620;52.340;5.984;2023-05-21T13:20:46;23.50;55.55
47861;HTU21D;33620;52.340;5.984;2023-05-21T13:23:12;23.37;54.52
47861;HTU21D;33620;52.340;5.984;2023-05-21T13:25:38;23.35;55.32
47861;HTU21D;33620;52.340;5.984;2023-05-21T13:28:04;23.37;55.88
47861;HTU21D;33620;52.340;5.984;2023-05-21T13:30:30;23.31;55.97
47861;HTU21D;33620;52.340;5.984;2023-05-21T13:32:57;23.25;55.90
47861;HTU21D;33620;52.340;5.984;2023-05-21T13:35:22;23.24;55.96
47861;HTU21D;33620;52.340;5.984;2023-05-21T13:37:48;23.23;55.99
47861;HTU21D;33620;52.340;5.984;2023-05-21T13:40:14;23.21;55.86
47861;HTU21D;33620;52.340;5.984;2023-05-21T13:42:40;23.28;56.33
47861;HTU21D;33620;52.340;5.984;2023-05-21T13:45:07;23.40;56.71
47861;HTU21D;33620;52.340;5.984;2023-05-21T13:47:32;23.59;56.48
47861;HTU21D;33620;52.340;5.984;2023-05-21T13:49:58;23.62;55.31
47861;HTU21D;33620;52.340;5.984;2023-05-21T13:52:23;23.66;56.07
47861;HTU21D;33620;52.340;5.984;2023-05-21T13:54:49;23.71;55.58
47861;HTU21D;33620;52.340;5.984;2023-05-21T13:57:14;23.81;55.76
47861;HTU21D;33620;52.340;5.984;2023-05-21T13:59:40;23.84;55.76
47861;HTU21D;33620;52.340;5.984;2023-05-21T14:02:06;23.80;55.47
47861;HTU21D;33620;52.340;5.984;2023-05-21T14:04:33;23.79;55.26
47861;HTU21D;33620;52.340;5.984;2023-05-21T14:06:58;23.74;55.13
47861;HTU21D;33620;52.340;5.984;2023-05-21T14:09:23;23.74;56.18
47861;HTU21D;33620;52.340;5.984;2023-05-21T14:11:51;23.65;55.32
47861;HTU21D;33620;52.340;5.984;2023-05-21T14:14:17;23.58;55.98
47861;HTU21D;33620;52.340;5.984;2023-05-21T14:16:45;23.56;56.15
47861;HTU21D;33620;52.340;5.984;2023-05-21T14:19:11;23.56;55.97
47861;HTU21D;33620;52.340;5.984;2023-05-21T14:21:36;23.64;55.62
47861;HTU21D;33620;52.340;5.984;2023-05-21T14:24:02;23.58;56.24
47861;HTU21D;33620;52.340;5.984;2023-05-21T14:26:27;23.69;56.23
47861;HTU21D;33620;52.340;5.984;2023-05-21T14:28:53;23.76;55.88
47861;HTU21D;33620;52.340;5.984;2023-05-21T14:31:18;23.89;56.17
47861;HTU21D;33620;52.340;5.984;2023-05-21T14:33:45;24.05;55.58
47861;HTU21D;33620;52.340;5.984;2023-05-21T14:36:11;24.10;55.18
47861;HTU21D;33620;52.340;5.984;2023-05-21T14:38:36;24.17;55.71
47861;HTU21D;33620;52.340;5.984;2023-05-21T14:41:01;24.23;55.38
47861;HTU21D;33620;52.340;5.984;2023-05-21T14:43:27;24.30;55.43
47861;HTU21D;33620;52.340;5.984;2023-05-21T14:45:52;24.32;54.52
47861;HTU21D;33620;52.340;5.984;2023-05-21T14:48:18;24.29;54.73
47861;HTU21D;33620;52.340;5.984;2023-05-21T14:50:50;24.24;54.95
47861;HTU21D;33620;52.340;5.984;2023-05-21T14:53:16;24.10;55.22
47861;HTU21D;33620;52.340;5.984;2023-05-21T14:55:41;24.06;55.29
47861;HTU21D;33620;52.340;5.984;2023-05-21T14:58:07;24.12;55.24
47861;HTU21D;33620;52.340;5.984;2023-05-21T15:00:33;24.21;55.47
47861;HTU21D;33620;52.340;5.984;2023-05-21T15:02:59;24.34;54.95
47861;HTU21D;33620;52.340;5.984;2023-05-21T15:05:25;24.34;54.07
47861;HTU21D;33620;52.340;5.984;2023-05-21T15:07:52;24.19;54.38
47861;HTU21D;33620;52.340;5.984;2023-05-21T15:10:19;24.15;54.97
47861;HTU21D;33620;52.340;5.984;2023-05-21T15:12:45;24.15;55.73
47861;HTU21D;33620;52.340;5.984;2023-05-21T15:15:10;24.18;55.64
47861;HTU21D;33620;52.340;5.984;2023-05-21T15:17:36;24.18;55.36
47861;HTU21D;33620;52.340;5.984;2023-05-21T15:20:02;24.26;55.65
47861;HTU21D;33620;52.340;5.984;2023-05-21T15:22:31;24.32;55.43
47861;HTU21D;33620;52.340;5.984;2023-05-21T15:24:56;24.36;54.81
47861;HTU21D;33620;52.340;5.984;2023-05-21T15:27:22;24.33;54.13
47861;HTU21D;33620;52.340;5.984;2023-05-21T15:29:49;24.23;54.72
47861;HTU21D;33620;52.340;5.984;2023-05-21T15:32:15;24.27;55.33
47861;HTU21D;33620;52.340;5.984;2023-05-21T15:34:40;24.27;55.21
47861;HTU21D;33620;52.340;5.984;2023-05-21T15:37:06;24.31;54.78
47861;HTU21D;33620;52.340;5.984;2023-05-21T15:39:32;24.38;55.29
47861;HTU21D;33620;52.340;5.984;2023-05-21T15:41:57;24.38;54.39